createdAt,value
2022-09-30T00:01:11.241Z,9.38
2022-09-30T00:03:38.843Z,9.33
2022-09-30T00:06:09.106Z,9.26
2022-09-30T00:08:39.001Z,9.23
2022-09-30T00:11:09.023Z,9.22
2022-09-30T00:13:39.141Z,9.19
2022-09-30T00:16:07.951Z,9.15
2022-09-30T00:18:36.405Z,9.14
2022-09-30T00:21:04.267Z,9.14
2022-09-30T00:23:32.352Z,9.11
2022-09-30T00:26:03.640Z,9.07
2022-09-30T00:28:31.549Z,9.01
2022-09-30T00:31:00.377Z,8.94
2022-09-30T00:33:28.109Z,8.90
2022-09-30T00:35:55.855Z,8.86
2022-09-30T00:38:23.484Z,8.83
2022-09-30T00:40:51.597Z,8.80
2022-09-30T00:43:39.752Z,8.75
2022-09-30T00:46:14.690Z,8.72
2022-09-30T00:48:42.467Z,8.71
2022-09-30T00:51:10.438Z,8.70
2022-09-30T00:53:46.298Z,8.65
2022-09-30T00:56:18.127Z,8.65
2022-09-30T00:59:04.469Z,8.61
2022-09-30T01:01:32.758Z,8.60
2022-09-30T01:04:03.126Z,8.63
2022-09-30T01:06:30.916Z,8.65
2022-09-30T01:08:59.610Z,8.64
2022-09-30T01:11:29.325Z,8.65
2022-09-30T01:14:02.387Z,8.63
2022-09-30T01:16:54.544Z,8.58
2022-09-30T01:20:08.697Z,8.53
2022-09-30T01:22:45.163Z,8.48
2022-09-30T01:25:40.147Z,8.48
2022-09-30T01:28:34.537Z,8.47
2022-09-30T01:31:14.269Z,8.45
2022-09-30T01:33:51.936Z,8.43
2022-09-30T01:36:29.395Z,8.40
2022-09-30T01:39:08.124Z,8.44
2022-09-30T01:41:43.990Z,8.49
2022-09-30T01:44:17.525Z,8.48
2022-09-30T01:46:53.465Z,8.46
2022-09-30T01:49:28.324Z,8.41
2022-09-30T01:52:02.891Z,8.42
2022-09-30T01:54:39.046Z,8.44
2022-09-30T01:57:11.644Z,8.46
2022-09-30T01:59:46.376Z,8.43
2022-09-30T02:02:19.629Z,8.41
2022-09-30T02:04:53.162Z,8.39
2022-09-30T02:07:25.994Z,8.35
2022-09-30T02:09:55.697Z,8.37
2022-09-30T02:12:28.628Z,8.36
2022-09-30T02:15:02.337Z,8.34
2022-09-30T02:17:35.752Z,8.38
2022-09-30T02:20:07.223Z,8.39
2022-09-30T02:22:44.613Z,8.37
2022-09-30T02:25:20.204Z,8.37
2022-09-30T02:27:51.672Z,8.37
2022-09-30T02:30:20.140Z,8.36
2022-09-30T02:32:52.806Z,8.33
2022-09-30T02:35:26.770Z,8.31
2022-09-30T02:37:59.017Z,8.27
2022-09-30T02:40:32.705Z,8.22
2022-09-30T02:43:00.409Z,8.21
2022-09-30T02:45:32.261Z,8.20
2022-09-30T02:48:10.602Z,8.18
2022-09-30T02:50:45.876Z,8.14
2022-09-30T02:53:23.020Z,8.09
2022-09-30T02:56:14.570Z,8.10
2022-09-30T02:58:43.280Z,8.08
2022-09-30T03:01:13.404Z,8.07
2022-09-30T03:03:44.258Z,8.04
2022-09-30T03:06:12.966Z,8.00
2022-09-30T03:08:42.855Z,7.96
2022-09-30T03:11:15.781Z,7.96
2022-09-30T03:14:03.902Z,7.96
2022-09-30T03:16:47.191Z,7.97
2022-09-30T03:19:34.619Z,8.01
2022-09-30T03:22:19.273Z,8.04
2022-09-30T03:25:01.266Z,8.04
2022-09-30T03:27:36.835Z,8.04
2022-09-30T03:30:08.318Z,8.04
2022-09-30T03:32:53.647Z,7.94
2022-09-30T03:35:31.991Z,7.84
2022-09-30T03:38:05.150Z,7.78
2022-09-30T03:40:42.717Z,7.78
2022-09-30T03:43:18.449Z,7.81
2022-09-30T03:45:52.630Z,7.84
2022-09-30T03:48:21.747Z,7.88
2022-09-30T03:50:50.865Z,7.92
2022-09-30T03:53:18.541Z,7.93
2022-09-30T03:55:52.337Z,7.92
2022-09-30T03:58:22.144Z,7.94
2022-09-30T04:00:52.733Z,7.94
2022-09-30T04:03:22.089Z,7.91
2022-09-30T04:05:51.225Z,7.84
2022-09-30T04:08:18.847Z,7.84
2022-09-30T04:10:46.612Z,7.77
2022-09-30T04:13:14.464Z,7.74
2022-09-30T04:15:42.212Z,7.72
2022-09-30T04:18:09.829Z,7.75
2022-09-30T04:20:39.317Z,7.75
2022-09-30T04:23:08.147Z,7.70
2022-09-30T04:25:35.622Z,7.62
2022-09-30T04:28:03.927Z,7.58
2022-09-30T04:30:33.651Z,7.54
2022-09-30T04:33:02.474Z,7.52
2022-09-30T04:35:30.260Z,7.57
2022-09-30T04:37:57.858Z,7.61
2022-09-30T04:40:26.885Z,7.62
2022-09-30T04:42:58.136Z,7.60
2022-09-30T04:45:26.489Z,7.58
2022-09-30T04:47:54.613Z,7.62
2022-09-30T04:50:22.872Z,7.65
2022-09-30T04:52:54.995Z,7.66
2022-09-30T04:55:22.830Z,7.61
2022-09-30T04:57:51.998Z,7.57
2022-09-30T05:00:20.485Z,7.51
2022-09-30T05:02:48.005Z,7.48
2022-09-30T05:05:15.623Z,7.52
2022-09-30T05:07:43.174Z,7.56
2022-09-30T05:10:11.441Z,7.59
2022-09-30T05:12:40.915Z,7.62
2022-09-30T05:15:10.707Z,7.62
2022-09-30T05:17:38.289Z,7.61
2022-09-30T05:20:10.649Z,7.61
2022-09-30T05:22:38.270Z,7.62
2022-09-30T05:25:06.602Z,7.62
2022-09-30T05:27:34.053Z,7.63
2022-09-30T05:30:01.557Z,7.64
2022-09-30T05:32:31.638Z,7.62
2022-09-30T05:34:59.114Z,7.61
2022-09-30T05:37:26.580Z,7.62
2022-09-30T05:39:55.175Z,7.59
2022-09-30T05:42:22.764Z,7.51
2022-09-30T05:44:50.267Z,7.45
2022-09-30T05:47:17.748Z,7.46
2022-09-30T05:49:46.712Z,7.47
2022-09-30T05:52:14.928Z,7.46
2022-09-30T05:54:42.458Z,7.51
2022-09-30T05:57:10.219Z,7.56
2022-09-30T05:59:38.576Z,7.61
2022-09-30T06:02:06.176Z,7.60
2022-09-30T06:04:33.794Z,7.59
2022-09-30T06:07:05.914Z,7.58
2022-09-30T06:09:36.027Z,7.57
2022-09-30T06:12:03.586Z,7.57
2022-09-30T06:14:31.137Z,7.61
2022-09-30T06:17:00.345Z,7.64
2022-09-30T06:19:30.264Z,7.65
2022-09-30T06:21:58.017Z,7.73
2022-09-30T06:24:27.325Z,7.77
2022-09-30T06:26:54.838Z,7.84
2022-09-30T06:29:22.443Z,7.92
2022-09-30T06:31:50.092Z,8.00
2022-09-30T06:34:17.649Z,8.09
2022-09-30T06:36:45.116Z,8.18
2022-09-30T06:39:13.919Z,8.30
2022-09-30T06:41:44.009Z,8.41
2022-09-30T06:44:12.496Z,8.51
2022-09-30T06:46:52.676Z,8.62
2022-09-30T06:49:21.370Z,8.80
2022-09-30T06:51:51.299Z,8.97
2022-09-30T06:54:19.346Z,9.16
2022-09-30T06:56:49.684Z,9.31
2022-09-30T06:59:17.797Z,9.46
2022-09-30T07:01:46.212Z,9.62
2022-09-30T07:04:14.098Z,9.82
2022-09-30T07:06:41.775Z,9.98
2022-09-30T07:09:10.521Z,10.16
2022-09-30T07:11:38.627Z,10.36
2022-09-30T07:14:07.820Z,10.61
2022-09-30T07:16:35.482Z,10.86
2022-09-30T07:19:04.009Z,11.07
2022-09-30T07:21:32.183Z,11.24
2022-09-30T07:23:59.858Z,11.40
2022-09-30T07:26:28.746Z,11.54
2022-09-30T07:28:56.272Z,11.70
2022-09-30T07:31:32.964Z,11.86
2022-09-30T07:34:02.566Z,12.05
2022-09-30T07:36:33.419Z,12.22
2022-09-30T07:39:05.661Z,12.36
2022-09-30T07:41:35.746Z,12.50
2022-09-30T07:44:06.079Z,12.66
2022-09-30T07:46:38.669Z,12.85
2022-09-30T07:49:08.789Z,13.02
2022-09-30T07:51:38.906Z,13.14
2022-09-30T07:54:09.081Z,13.25
2022-09-30T07:57:05.103Z,13.33
2022-09-30T07:59:27.159Z,13.39
2022-09-30T08:01:56.172Z,13.41
2022-09-30T08:04:25.375Z,13.39
2022-09-30T08:06:56.017Z,13.36
2022-09-30T08:09:25.740Z,13.35
2022-09-30T08:11:53.608Z,13.31
2022-09-30T08:14:23.513Z,13.26
2022-09-30T08:16:51.845Z,13.22
2022-09-30T08:19:22.682Z,13.16
2022-09-30T08:21:51.060Z,13.16
2022-09-30T08:24:18.810Z,13.23
2022-09-30T08:26:46.623Z,13.29
2022-09-30T08:29:20.451Z,13.37
2022-09-30T08:31:52.852Z,13.49
2022-09-30T08:34:21.912Z,13.60
2022-09-30T08:36:49.486Z,13.68
2022-09-30T08:39:17.149Z,13.72
2022-09-30T08:42:13.899Z,13.78
2022-09-30T08:44:49.922Z,13.81
2022-09-30T08:47:32.830Z,13.79
2022-09-30T08:50:10.115Z,13.76
2022-09-30T08:52:48.948Z,13.70
2022-09-30T08:55:22.865Z,13.69
2022-09-30T08:57:52.520Z,13.67
2022-09-30T09:00:22.616Z,13.66
2022-09-30T09:02:53.708Z,13.65
2022-09-30T09:05:34.965Z,13.64
2022-09-30T09:08:08.708Z,13.69
2022-09-30T09:10:44.542Z,13.71
2022-09-30T09:13:29.673Z,13.75
2022-09-30T09:16:05.105Z,13.80
2022-09-30T09:18:42.917Z,13.81
2022-09-30T09:21:22.693Z,13.78
2022-09-30T09:23:52.514Z,13.73
2022-09-30T09:26:20.130Z,13.69
2022-09-30T09:29:01.027Z,13.67
2022-09-30T09:31:28.677Z,13.71
2022-09-30T09:34:00.785Z,13.81
2022-09-30T09:36:46.765Z,13.96
2022-09-30T09:39:32.678Z,14.06
2022-09-30T09:42:10.170Z,14.15
2022-09-30T09:44:48.158Z,14.26
2022-09-30T09:47:17.037Z,14.37
2022-09-30T09:49:46.198Z,14.46
2022-09-30T09:52:39.854Z,14.53
2022-09-30T09:55:11.265Z,14.57
2022-09-30T09:57:40.210Z,14.57
2022-09-30T10:00:27.489Z,14.59
2022-09-30T10:03:01.510Z,14.68
2022-09-30T10:05:30.521Z,14.76
2022-09-30T10:08:13.334Z,14.81
2022-09-30T10:10:48.564Z,14.94
2022-09-30T10:13:21.638Z,15.06
2022-09-30T10:15:50.117Z,15.12
2022-09-30T10:18:21.159Z,15.17
2022-09-30T10:20:54.397Z,15.28
2022-09-30T10:23:27.927Z,15.45
2022-09-30T10:25:57.561Z,15.65
2022-09-30T10:28:28.076Z,15.80
2022-09-30T10:31:03.048Z,15.91
2022-09-30T10:33:35.183Z,16.01
2022-09-30T10:36:16.227Z,16.09
2022-09-30T10:38:58.194Z,16.06
2022-09-30T10:41:30.131Z,16.05
2022-09-30T10:44:00.920Z,16.04
2022-09-30T10:46:31.601Z,16.03
2022-09-30T10:49:00.380Z,16.08
2022-09-30T10:51:36.075Z,16.23
2022-09-30T10:54:06.479Z,16.42
2022-09-30T10:56:45.539Z,16.52
2022-09-30T10:59:20.704Z,16.56
2022-09-30T11:01:57.342Z,16.61
2022-09-30T11:04:33.424Z,16.65
2022-09-30T11:07:13.262Z,16.66
2022-09-30T11:09:48.726Z,16.65
2022-09-30T11:12:21.973Z,16.63
2022-09-30T11:14:58.544Z,16.63
2022-09-30T11:17:34.930Z,16.61
2022-09-30T11:20:13.522Z,16.60
2022-09-30T11:22:47.056Z,16.55
2022-09-30T11:25:20.681Z,16.60
2022-09-30T11:27:59.689Z,16.72
2022-09-30T11:30:37.145Z,16.84
2022-09-30T11:33:18.760Z,16.93
2022-09-30T11:35:55.407Z,16.99
2022-09-30T11:38:46.709Z,17.01
2022-09-30T11:41:23.176Z,17.01
2022-09-30T11:44:00.129Z,17.04
2022-09-30T11:46:47.365Z,17.06
2022-09-30T11:49:36.349Z,17.09
2022-09-30T11:52:14.665Z,17.15
2022-09-30T11:55:00.157Z,17.22
2022-09-30T11:57:35.801Z,17.45
2022-09-30T12:00:10.699Z,17.73
2022-09-30T12:02:40.816Z,18.01
2022-09-30T12:05:12.879Z,18.23
2022-09-30T12:07:47.030Z,18.35
2022-09-30T12:10:24.229Z,18.37
2022-09-30T12:12:57.389Z,18.36
2022-09-30T12:15:26.891Z,18.33
2022-09-30T12:17:59.063Z,18.28
2022-09-30T12:20:31.341Z,18.23
2022-09-30T12:23:06.329Z,18.19
2022-09-30T12:25:40.444Z,18.12
2022-09-30T12:28:35.353Z,18.03
2022-09-30T12:31:20.258Z,17.97
2022-09-30T12:34:00.058Z,17.92
2022-09-30T12:36:40.953Z,17.88
2022-09-30T12:39:38.484Z,17.87
2022-09-30T12:42:38.717Z,17.87
2022-09-30T12:45:32.913Z,17.84
2022-09-30T12:48:05.069Z,17.84
2022-09-30T12:50:40.735Z,17.81
2022-09-30T12:53:16.737Z,17.78
2022-09-30T12:55:44.827Z,17.75
2022-09-30T12:58:22.061Z,17.67
2022-09-30T13:01:12.563Z,17.63
2022-09-30T13:03:52.546Z,17.60
2022-09-30T13:06:22.172Z,17.59
2022-09-30T13:09:08.051Z,17.62
2022-09-30T13:11:41.372Z,17.64
2022-09-30T13:14:26.006Z,17.65
2022-09-30T13:17:19.969Z,17.64
2022-09-30T13:19:49.563Z,17.62
2022-09-30T13:22:53.753Z,17.56
2022-09-30T13:25:21.605Z,17.52
2022-09-30T13:27:53.390Z,17.48
2022-09-30T13:30:37.347Z,17.43
2022-09-30T13:33:42.761Z,17.35
2022-09-30T13:36:25.504Z,17.25
2022-09-30T13:39:07.953Z,17.22
2022-09-30T13:41:38.577Z,17.20
2022-09-30T13:44:10.456Z,17.20
2022-09-30T13:46:43.728Z,17.17
2022-09-30T13:49:18.720Z,17.18
2022-09-30T13:51:47.088Z,17.21
2022-09-30T13:54:31.781Z,17.24
2022-09-30T13:57:00.836Z,17.23
2022-09-30T13:59:49.123Z,17.24
2022-09-30T14:02:38.084Z,17.25
2022-09-30T14:05:35.093Z,17.28
2022-09-30T14:08:41.195Z,17.30
2022-09-30T14:11:28.652Z,17.32
2022-09-30T14:14:12.932Z,17.33
2022-09-30T14:17:05.700Z,17.37
2022-09-30T14:20:04.994Z,17.37
2022-09-30T14:22:37.341Z,17.40
2022-09-30T14:25:13.716Z,17.41
2022-09-30T14:27:50.729Z,17.45
2022-09-30T14:30:21.269Z,17.44
2022-09-30T14:32:52.045Z,17.40
2022-09-30T14:35:22.084Z,17.35
2022-09-30T14:37:54.263Z,17.32
2022-09-30T14:40:27.020Z,17.28
2022-09-30T14:42:59.275Z,17.24
2022-09-30T14:45:29.724Z,17.23
2022-09-30T14:48:01.628Z,17.22
2022-09-30T14:50:41.785Z,17.23
2022-09-30T14:53:27.939Z,17.24
2022-09-30T14:55:58.135Z,17.24
2022-09-30T14:58:30.443Z,17.23
2022-09-30T15:01:06.063Z,17.20
2022-09-30T15:03:36.494Z,17.15
2022-09-30T15:06:08.501Z,17.12
2022-09-30T15:08:38.109Z,17.07
2022-09-30T15:11:06.386Z,17.01
2022-09-30T15:13:36.945Z,16.94
2022-09-30T15:16:05.318Z,16.92
2022-09-30T16:32:29.669Z,15.79
2022-09-30T16:35:20.124Z,15.75
2022-09-30T16:38:29.746Z,15.70
2022-09-30T16:41:25.433Z,15.63
2022-09-30T16:47:22.431Z,15.55
2022-09-30T16:49:54.763Z,15.48
2022-09-30T16:55:27.265Z,15.34
2022-09-30T16:58:05.561Z,15.27
2022-09-30T17:00:33.985Z,15.20
2022-09-30T17:03:03.269Z,15.12
2022-09-30T17:05:33.569Z,15.03
2022-09-30T17:08:09.439Z,14.88
2022-09-30T17:11:18.303Z,14.70
2022-09-30T17:16:37.409Z,14.36
2022-09-30T17:19:06.490Z,14.21
2022-09-30T17:21:34.952Z,14.07
2022-09-30T17:24:07.958Z,13.88
2022-09-30T17:26:40.323Z,13.74
2022-09-30T17:31:59.463Z,13.54
2022-09-30T17:34:28.113Z,13.46
2022-09-30T17:36:58.980Z,13.41
2022-09-30T17:39:27.991Z,13.39
2022-09-30T17:42:13.360Z,13.38
2022-09-30T17:44:48.551Z,13.34
2022-09-30T17:47:23.838Z,13.33
2022-09-30T18:01:36.726Z,13.09
2022-09-30T18:04:07.715Z,13.02
2022-09-30T18:06:38.123Z,12.97
2022-09-30T18:09:15.582Z,12.94
2022-09-30T18:11:47.188Z,12.89
2022-09-30T18:17:03.978Z,12.83
2022-09-30T18:19:35.917Z,12.79
2022-09-30T18:22:05.537Z,12.77
2022-09-30T18:24:51.762Z,12.74
2022-09-30T18:27:23.206Z,12.69
2022-09-30T18:29:52.914Z,12.62
2022-09-30T18:32:23.478Z,12.56
2022-09-30T18:35:00.910Z,12.52
2022-09-30T18:37:34.405Z,12.46
2022-09-30T18:40:08.373Z,12.41
2022-09-30T18:42:50.405Z,12.36
2022-09-30T18:45:24.237Z,12.28
2022-09-30T18:47:58.011Z,12.24
2022-09-30T18:50:32.044Z,12.18
2022-09-30T18:53:09.111Z,12.16
2022-09-30T18:55:44.580Z,12.12
2022-09-30T18:58:16.433Z,12.10
2022-09-30T19:00:46.494Z,12.06
2022-09-30T19:03:18.296Z,12.06
2022-09-30T19:05:49.729Z,12.07
2022-09-30T19:08:18.206Z,12.07
2022-09-30T19:10:48.476Z,12.04
2022-09-30T19:13:18.059Z,12.00
2022-09-30T19:15:51.583Z,11.98
2022-09-30T19:18:25.478Z,11.95
2022-09-30T19:20:56.322Z,11.93
2022-09-30T19:23:27.117Z,11.90
2022-09-30T19:26:03.827Z,11.88
2022-09-30T19:36:49.478Z,11.81
2022-09-30T19:39:31.497Z,11.77
2022-09-30T19:42:19.047Z,11.73
2022-09-30T19:44:50.353Z,11.68
2022-09-30T19:47:24.601Z,11.64
2022-09-30T19:50:01.332Z,11.62
2022-09-30T19:55:18.335Z,11.59
2022-09-30T19:57:48.081Z,11.58
2022-09-30T20:00:18.051Z,11.53
2022-09-30T20:02:48.178Z,11.49
2022-09-30T20:05:22.123Z,11.46
2022-09-30T20:07:55.032Z,11.42
2022-09-30T20:10:26.467Z,11.37
2022-09-30T20:12:58.883Z,11.34
2022-09-30T20:15:46.313Z,11.31
2022-09-30T20:18:23.627Z,11.26
2022-09-30T20:20:54.092Z,11.23
2022-09-30T20:23:23.249Z,11.19
2022-09-30T20:25:52.718Z,11.12
2022-09-30T20:28:21.342Z,11.07
2022-09-30T20:30:49.529Z,11.04
2022-09-30T20:33:19.089Z,10.99
2022-09-30T20:35:47.006Z,10.93
2022-09-30T20:38:17.207Z,10.88
2022-09-30T20:40:46.184Z,10.84
2022-09-30T20:43:13.741Z,10.84
2022-09-30T20:45:41.339Z,10.86
2022-09-30T20:48:09.437Z,10.89
2022-09-30T20:50:43.044Z,10.93
2022-09-30T20:53:13.923Z,10.97
2022-09-30T20:55:44.287Z,11.00
2022-09-30T20:58:13.874Z,11.01
2022-09-30T21:00:42.656Z,11.00
2022-09-30T21:03:13.173Z,11.02
2022-09-30T21:05:41.217Z,11.02
2022-09-30T21:08:08.776Z,11.03
2022-09-30T21:10:38.712Z,11.06
2022-09-30T21:13:11.276Z,11.05
2022-09-30T21:15:40.189Z,11.03
2022-09-30T21:18:08.022Z,11.03
2022-09-30T21:20:35.929Z,11.05
2022-09-30T21:23:03.772Z,11.06
2022-09-30T21:25:32.464Z,11.05
2022-09-30T21:28:00.152Z,11.04
2022-09-30T21:30:28.208Z,11.03
2022-09-30T21:32:57.259Z,11.03
2022-09-30T21:35:24.873Z,11.04
2022-09-30T21:37:52.384Z,11.00
2022-09-30T21:40:19.924Z,10.94
2022-09-30T21:42:47.531Z,10.92
2022-09-30T21:45:15.291Z,10.87
2022-09-30T21:47:42.846Z,10.79
2022-09-30T21:50:12.342Z,10.70
2022-09-30T21:52:39.879Z,10.65
2022-09-30T21:55:08.100Z,10.60
2022-09-30T21:57:35.658Z,10.53
2022-09-30T22:00:03.552Z,10.47
2022-09-30T22:02:31.449Z,10.42
2022-09-30T22:04:58.990Z,10.34
2022-09-30T22:07:27.879Z,10.23
2022-09-30T22:09:55.460Z,10.16
2022-09-30T22:12:23.268Z,10.09
2022-09-30T22:14:51.066Z,10.02
2022-09-30T22:17:18.589Z,9.97
2022-09-30T22:19:46.215Z,9.93
2022-09-30T22:22:13.733Z,9.93
2022-09-30T22:24:42.777Z,9.88
2022-09-30T22:27:10.973Z,9.80
2022-09-30T22:29:38.732Z,9.74
2022-09-30T22:32:06.620Z,9.68
2022-09-30T22:34:52.013Z,9.63
2022-09-30T22:37:37.552Z,9.55
2022-09-30T22:40:07.561Z,9.46
2022-09-30T22:42:35.773Z,9.37
2022-09-30T22:45:03.488Z,9.32
2022-09-30T22:47:31.626Z,9.26
2022-09-30T22:49:59.276Z,9.21
2022-09-30T22:52:26.845Z,9.19
2022-09-30T22:54:54.331Z,9.14
2022-09-30T22:57:23.896Z,9.13
2022-09-30T22:59:52.779Z,9.12
2022-09-30T23:02:21.149Z,9.11
2022-09-30T23:04:48.785Z,9.10
2022-09-30T23:07:16.315Z,9.04
2022-09-30T23:09:43.831Z,8.99
2022-09-30T23:12:12.143Z,8.94
2022-09-30T23:14:40.943Z,8.88
2022-09-30T23:17:08.494Z,8.82
2022-09-30T23:19:36.010Z,8.84
2022-09-30T23:22:03.754Z,8.85
2022-09-30T23:24:31.351Z,8.88
2022-09-30T23:26:59.987Z,8.87
2022-09-30T23:29:27.485Z,8.86
2022-09-30T23:31:56.362Z,8.87
2022-09-30T23:34:24.279Z,8.89
2022-09-30T23:36:51.777Z,8.92
2022-09-30T23:39:20.705Z,8.93
2022-09-30T23:41:49.774Z,8.93
2022-09-30T23:44:18.675Z,8.91
2022-09-30T23:47:00.547Z,8.91
2022-09-30T23:49:32.305Z,8.97
2022-09-30T23:51:59.769Z,9.00
2022-09-30T23:54:27.264Z,9.00
2022-09-30T23:56:54.853Z,8.97
2022-09-30T23:59:22.393Z,8.96
